Boyne Falls, Michigan
Current Conditions -  °F | °C
As of 12:53 PM on Tuesday 21 Oct 2014 (Local Time) from KGLR Reporting Station
Few Clouds Few Clouds  
Wind Chill: 38°   Ceiling: Unl
Heat Index: 43°   Visibility: 10mi
Dew Point: 31°   Wind: 9mph
Humidity: 62%   Direction: 20°NNE
Pressure: 30.16"   Gusts: 17mph
Location:  45.17°N, 84.92°W
Report Text: KGLR 211653Z AUTO 02008G15KT 10SM FEW028 06/M01 A3016 RMK AO2 SLP221 T00611006
Loading
Personal Weather Stations






























Interactive Weather Map
Tropical Storm Tracking
New forecast layout! Learn more

10-Day Weather Forecast

Advertisements
Track Severe Weather on mobile